sensor_id;sensor_type;location;lat;lon;timestamp;temperature;humidity
3330;DHT22;1677;49.576;10.990;2023-03-05T00:00:35;4.00;99.90
3330;DHT22;1677;49.576;10.990;2023-03-05T00:03:01;4.00;99.90
3330;DHT22;1677;49.576;10.990;2023-03-05T00:05:27;3.90;99.90
3330;DHT22;1677;49.576;10.990;2023-03-05T00:07:52;4.00;99.90
3330;DHT22;1677;49.576;10.990;2023-03-05T00:10:18;4.00;99.90
3330;DHT22;1677;49.576;10.990;2023-03-05T00:12:43;4.00;99.90
3330;DHT22;1677;49.576;10.990;2023-03-05T00:15:09;4.00;99.90
3330;DHT22;1677;49.576;10.990;2023-03-05T00:17:34;3.90;99.90
3330;DHT22;1677;49.576;10.990;2023-03-05T00:20:00;4.00;99.90
3330;DHT22;1677;49.576;10.990;2023-03-05T00:22:26;4.00;99.90
3330;DHT22;1677;49.576;10.990;2023-03-05T00:24:51;4.20;99.90
3330;DHT22;1677;49.576;10.990;2023-03-05T00:27:17;4.20;99.90
3330;DHT22;1677;49.576;10.990;2023-03-05T00:29:43;4.10;99.90
3330;DHT22;1677;49.576;10.990;2023-03-05T00:32:08;3.90;99.90
3330;DHT22;1677;49.576;10.990;2023-03-05T00:34:34;3.80;99.90
3330;DHT22;1677;49.576;10.990;2023-03-05T00:37:01;4.00;99.90
3330;DHT22;1677;49.576;10.990;2023-03-05T00:39:27;4.10;99.90
3330;DHT22;1677;49.576;10.990;2023-03-05T00:41:52;4.00;99.90
3330;DHT22;1677;49.576;10.990;2023-03-05T00:44:18;4.10;99.90
3330;DHT22;1677;49.576;10.990;2023-03-05T00:46:43;4.00;99.90
3330;DHT22;1677;49.576;10.990;2023-03-05T00:49:09;4.00;99.90
3330;DHT22;1677;49.576;10.990;2023-03-05T00:51:35;4.10;99.90
3330;DHT22;1677;49.576;10.990;2023-03-05T00:54:00;4.20;99.90
3330;DHT22;1677;49.576;10.990;2023-03-05T00:56:26;4.20;99.90
3330;DHT22;1677;49.576;10.990;2023-03-05T00:58:52;3.90;99.90
3330;DHT22;1677;49.576;10.990;2023-03-05T01:01:17;3.90;99.90
3330;DHT22;1677;49.576;10.990;2023-03-05T01:03:43;3.80;99.90
3330;DHT22;1677;49.576;10.990;2023-03-05T01:06:12;3.80;99.90
3330;DHT22;1677;49.576;10.990;2023-03-05T01:08:38;3.90;99.90
3330;DHT22;1677;49.576;10.990;2023-03-05T01:11:05;3.90;99.90
3330;DHT22;1677;49.576;10.990;2023-03-05T01:13:31;4.00;99.90
3330;DHT22;1677;49.576;10.990;2023-03-05T01:15:56;3.80;99.90
3330;DHT22;1677;49.576;10.990;2023-03-05T01:18:22;3.70;99.90
3330;DHT22;1677;49.576;10.990;2023-03-05T01:20:48;3.70;99.90
3330;DHT22;1677;49.576;10.990;2023-03-05T01:23:13;3.70;99.90
3330;DHT22;1677;49.576;10.990;2023-03-05T01:25:39;3.70;99.90
3330;DHT22;1677;49.576;10.990;2023-03-05T01:28:05;4.00;99.90
3330;DHT22;1677;49.576;10.990;2023-03-05T01:30:31;3.80;99.90
3330;DHT22;1677;49.576;10.990;2023-03-05T01:32:57;3.80;99.90
3330;DHT22;1677;49.576;10.990;2023-03-05T01:35:24;3.70;99.90
3330;DHT22;1677;49.576;10.990;2023-03-05T01:37:51;3.70;99.90
3330;DHT22;1677;49.576;10.990;2023-03-05T01:40:29;3.60;99.90
3330;DHT22;1677;49.576;10.990;2023-03-05T01:45:33;3.40;99.90
3330;DHT22;1677;49.576;10.990;2023-03-05T01:47:58;3.40;99.90
3330;DHT22;1677;49.576;10.990;2023-03-05T01:50:25;3.50;99.90
3330;DHT22;1677;49.576;10.990;2023-03-05T01:53:03;3.50;99.90
3330;DHT22;1677;49.576;10.990;2023-03-05T01:55:31;3.60;99.90
3330;DHT22;1677;49.576;10.990;2023-03-05T01:58:17;3.70;99.90
3330;DHT22;1677;49.576;10.990;2023-03-05T02:00:45;3.50;99.90
3330;DHT22;1677;49.576;10.990;2023-03-05T02:03:12;3.60;99.90
3330;DHT22;1677;49.576;10.990;2023-03-05T02:05:40;3.70;99.90
3330;DHT22;1677;49.576;10.990;2023-03-05T02:08:09;3.80;99.90
3330;DHT22;1677;49.576;10.990;2023-03-05T02:10:47;3.70;99.90
3330;DHT22;1677;49.576;10.990;2023-03-05T02:13:16;3.60;99.90
3330;DHT22;1677;49.576;10.990;2023-03-05T02:15:42;3.80;99.90
3330;DHT22;1677;49.576;10.990;2023-03-05T02:18:09;3.70;99.90
3330;DHT22;1677;49.576;10.990;2023-03-05T02:23:14;3.70;99.90
3330;DHT22;1677;49.576;10.990;2023-03-05T02:25:40;3.60;99.90
3330;DHT22;1677;49.576;10.990;2023-03-05T02:28:17;3.60;99.90
3330;DHT22;1677;49.576;10.990;2023-03-05T02:30:43;3.60;99.90
3330;DHT22;1677;49.576;10.990;2023-03-05T02:33:09;3.60;99.90
3330;DHT22;1677;49.576;10.990;2023-03-05T02:35:35;3.60;99.90
3330;DHT22;1677;49.576;10.990;2023-03-05T02:38:00;3.60;99.90
3330;DHT22;1677;49.576;10.990;2023-03-05T02:40:26;3.60;99.90
3330;DHT22;1677;49.576;10.990;2023-03-05T02:42:52;3.70;99.90
3330;DHT22;1677;49.576;10.990;2023-03-05T02:45:18;3.80;99.90
3330;DHT22;1677;49.576;10.990;2023-03-05T02:47:44;3.80;99.90
3330;DHT22;1677;49.576;10.990;2023-03-05T02:50:10;3.90;99.90
3330;DHT22;1677;49.576;10.990;2023-03-05T02:52:37;3.80;99.90
3330;DHT22;1677;49.576;10.990;2023-03-05T02:55:03;3.80;99.90
3330;DHT22;1677;49.576;10.990;2023-03-05T02:57:28;3.70;99.90
3330;DHT22;1677;49.576;10.990;2023-03-05T02:59:54;3.80;99.90
3330;DHT22;1677;49.576;10.990;2023-03-05T03:02:20;3.70;99.90
3330;DHT22;1677;49.576;10.990;2023-03-05T03:04:45;3.70;99.90
3330;DHT22;1677;49.576;10.990;2023-03-05T03:07:12;3.70;99.90
3330;DHT22;1677;49.576;10.990;2023-03-05T03:09:38;3.60;99.90
3330;DHT22;1677;49.576;10.990;2023-03-05T03:12:04;3.50;99.90
3330;DHT22;1677;49.576;10.990;2023-03-05T03:14:32;3.50;99.90
3330;DHT22;1677;49.576;10.990;2023-03-05T03:16:58;3.50;99.90
3330;DHT22;1677;49.576;10.990;2023-03-05T03:19:24;3.60;99.90
3330;DHT22;1677;49.576;10.990;2023-03-05T03:21:49;3.60;99.90
3330;DHT22;1677;49.576;10.990;2023-03-05T03:24:15;3.60;99.90
3330;DHT22;1677;49.576;10.990;2023-03-05T03:26:40;3.80;99.90
3330;DHT22;1677;49.576;10.990;2023-03-05T03:29:06;3.80;99.90
3330;DHT22;1677;49.576;10.990;2023-03-05T03:31:32;3.70;99.90
3330;DHT22;1677;49.576;10.990;2023-03-05T03:33:57;3.70;99.90
3330;DHT22;1677;49.576;10.990;2023-03-05T03:36:23;3.70;99.90
3330;DHT22;1677;49.576;10.990;2023-03-05T03:38:48;3.70;99.90
3330;DHT22;1677;49.576;10.990;2023-03-05T03:41:15;3.60;99.90
3330;DHT22;1677;49.576;10.990;2023-03-05T03:43:40;3.50;99.90
3330;DHT22;1677;49.576;10.990;2023-03-05T03:46:06;3.40;99.90
3330;DHT22;1677;49.576;10.990;2023-03-05T03:48:32;3.40;99.90
3330;DHT22;1677;49.576;10.990;2023-03-05T03:50:58;3.40;99.90
3330;DHT22;1677;49.576;10.990;2023-03-05T03:53:23;3.50;99.90
3330;DHT22;1677;49.576;10.990;2023-03-05T03:55:49;3.60;99.90
3330;DHT22;1677;49.576;10.990;2023-03-05T03:58:15;3.40;99.90
3330;DHT22;1677;49.576;10.990;2023-03-05T04:00:40;3.50;99.90
3330;DHT22;1677;49.576;10.990;2023-03-05T04:03:07;3.50;99.90
3330;DHT22;1677;49.576;10.990;2023-03-05T04:05:33;3.50;99.90
3330;DHT22;1677;49.576;10.990;2023-03-05T04:07:58;3.30;99.90
3330;DHT22;1677;49.576;10.990;2023-03-05T04:10:25;3.30;99.90
3330;DHT22;1677;49.576;10.990;2023-03-05T04:12:51;3.20;99.90
3330;DHT22;1677;49.576;10.990;2023-03-05T04:15:17;3.30;99.90
3330;DHT22;1677;49.576;10.990;2023-03-05T04:17:42;3.30;99.90
3330;DHT22;1677;49.576;10.990;2023-03-05T04:20:09;3.30;99.90
3330;DHT22;1677;49.576;10.990;2023-03-05T04:22:35;3.50;99.90
3330;DHT22;1677;49.576;10.990;2023-03-05T04:25:01;3.50;99.90
3330;DHT22;1677;49.576;10.990;2023-03-05T04:27:31;3.30;99.90
3330;DHT22;1677;49.576;10.990;2023-03-05T04:29:58;3.40;99.90
3330;DHT22;1677;49.576;10.990;2023-03-05T04:32:24;3.40;99.90
3330;DHT22;1677;49.576;10.990;2023-03-05T04:34:57;3.40;99.90
3330;DHT22;1677;49.576;10.990;2023-03-05T04:37:24;3.50;99.90
3330;DHT22;1677;49.576;10.990;2023-03-05T04:39:50;3.50;99.90
3330;DHT22;1677;49.576;10.990;2023-03-05T04:42:15;3.30;99.90
3330;DHT22;1677;49.576;10.990;2023-03-05T04:44:42;3.20;99.90
3330;DHT22;1677;49.576;10.990;2023-03-05T04:47:08;3.20;99.90
3330;DHT22;1677;49.576;10.990;2023-03-05T04:49:33;3.40;99.90
3330;DHT22;1677;49.576;10.990;2023-03-05T04:51:59;3.50;99.90
3330;DHT22;1677;49.576;10.990;2023-03-05T04:54:24;3.50;99.90
3330;DHT22;1677;49.576;10.990;2023-03-05T04:56:50;3.30;99.90
3330;DHT22;1677;49.576;10.990;2023-03-05T04:59:15;3.30;99.90
3330;DHT22;1677;49.576;10.990;2023-03-05T05:01:41;3.30;99.90
3330;DHT22;1677;49.576;10.990;2023-03-05T05:04:07;3.20;99.90
3330;DHT22;1677;49.576;10.990;2023-03-05T05:06:33;3.20;99.90
3330;DHT22;1677;49.576;10.990;2023-03-05T05:08:59;3.30;99.90
3330;DHT22;1677;49.576;10.990;2023-03-05T05:11:25;3.30;99.90
3330;DHT22;1677;49.576;10.990;2023-03-05T05:13:50;3.20;99.90
3330;DHT22;1677;49.576;10.990;2023-03-05T05:16:16;3.20;99.90
3330;DHT22;1677;49.576;10.990;2023-03-05T05:18:41;3.20;99.90
3330;DHT22;1677;49.576;10.990;2023-03-05T05:21:08;3.50;99.90
3330;DHT22;1677;49.576;10.990;2023-03-05T05:23:34;3.50;99.90
3330;DHT22;1677;49.576;10.990;2023-03-05T05:26:01;3.50;99.90
3330;DHT22;1677;49.576;10.990;2023-03-05T05:28:28;3.40;99.90
3330;DHT22;1677;49.576;10.990;2023-03-05T05:30:54;3.40;99.90
3330;DHT22;1677;49.576;10.990;2023-03-05T05:33:20;3.70;99.90
3330;DHT22;1677;49.576;10.990;2023-03-05T05:35:46;3.70;99.90
3330;DHT22;1677;49.576;10.990;2023-03-05T05:38:12;3.70;99.90
3330;DHT22;1677;49.576;10.990;2023-03-05T05:40:37;3.50;99.90
3330;DHT22;1677;49.576;10.990;2023-03-05T05:43:04;3.50;99.90
3330;DHT22;1677;49.576;10.990;2023-03-05T05:45:29;3.40;99.90
3330;DHT22;1677;49.576;10.990;2023-03-05T05:47:55;3.30;99.90
3330;DHT22;1677;49.576;10.990;2023-03-05T05:50:21;3.20;99.90
3330;DHT22;1677;49.576;10.990;2023-03-05T05:52:46;3.10;99.90
3330;DHT22;1677;49.576;10.990;2023-03-05T05:55:12;3.20;99.90
3330;DHT22;1677;49.576;10.990;2023-03-05T05:57:38;3.10;99.90
3330;DHT22;1677;49.576;10.990;2023-03-05T06:00:08;3.10;99.90
3330;DHT22;1677;49.576;10.990;2023-03-05T06:02:40;3.10;99.90
3330;DHT22;1677;49.576;10.990;2023-03-05T06:05:06;3.10;99.90
3330;DHT22;1677;49.576;10.990;2023-03-05T06:07:33;3.20;99.90
3330;DHT22;1677;49.576;10.990;2023-03-05T06:09:59;3.10;99.90
3330;DHT22;1677;49.576;10.990;2023-03-05T06:12:25;3.00;99.90
3330;DHT22;1677;49.576;10.990;2023-03-05T06:14:51;3.10;99.90
3330;DHT22;1677;49.576;10.990;2023-03-05T06:17:16;3.10;99.90
3330;DHT22;1677;49.576;10.990;2023-03-05T06:19:42;3.10;99.90
3330;DHT22;1677;49.576;10.990;2023-03-05T06:22:07;3.40;99.90
3330;DHT22;1677;49.576;10.990;2023-03-05T06:24:33;3.30;99.90
3330;DHT22;1677;49.576;10.990;2023-03-05T06:26:59;3.30;99.90
3330;DHT22;1677;49.576;10.990;2023-03-05T06:29:24;3.30;99.90
3330;DHT22;1677;49.576;10.990;2023-03-05T06:31:50;3.30;99.90
3330;DHT22;1677;49.576;10.990;2023-03-05T06:34:15;3.30;99.90
3330;DHT22;1677;49.576;10.990;2023-03-05T06:36:41;3.30;99.90
3330;DHT22;1677;49.576;10.990;2023-03-05T06:39:08;3.20;99.90
3330;DHT22;1677;49.576;10.990;2023-03-05T06:41:33;3.20;99.90
3330;DHT22;1677;49.576;10.990;2023-03-05T06:44:00;3.40;99.90
3330;DHT22;1677;49.576;10.990;2023-03-05T06:46:34;3.50;99.90
3330;DHT22;1677;49.576;10.990;2023-03-05T06:49:02;3.50;99.90
3330;DHT22;1677;49.576;10.990;2023-03-05T06:51:33;3.50;99.90
3330;DHT22;1677;49.576;10.990;2023-03-05T06:54:02;3.70;99.90
3330;DHT22;1677;49.576;10.990;2023-03-05T06:56:28;3.70;99.90
3330;DHT22;1677;49.576;10.990;2023-03-05T06:58:53;3.70;99.90
3330;DHT22;1677;49.576;10.990;2023-03-05T07:01:19;3.80;99.90
3330;DHT22;1677;49.576;10.990;2023-03-05T07:03:48;3.70;99.90
3330;DHT22;1677;49.576;10.990;2023-03-05T07:06:14;3.60;99.90
3330;DHT22;1677;49.576;10.990;2023-03-05T07:08:40;3.50;99.90
3330;DHT22;1677;49.576;10.990;2023-03-05T07:11:15;3.50;99.90
3330;DHT22;1677;49.576;10.990;2023-03-05T07:13:41;3.70;99.90
3330;DHT22;1677;49.576;10.990;2023-03-05T07:16:09;3.70;99.90
3330;DHT22;1677;49.576;10.990;2023-03-05T07:18:35;3.80;99.90
3330;DHT22;1677;49.576;10.990;2023-03-05T07:21:05;4.20;99.90
3330;DHT22;1677;49.576;10.990;2023-03-05T07:23:32;4.00;99.90
3330;DHT22;1677;49.576;10.990;2023-03-05T07:26:03;4.00;99.90
3330;DHT22;1677;49.576;10.990;2023-03-05T07:28:30;4.00;99.90
3330;DHT22;1677;49.576;10.990;2023-03-05T07:30:57;4.10;99.90
3330;DHT22;1677;49.576;10.990;2023-03-05T07:33:24;4.20;99.90
3330;DHT22;1677;49.576;10.990;2023-03-05T07:35:50;4.20;99.90
3330;DHT22;1677;49.576;10.990;2023-03-05T07:38:15;4.30;99.90
3330;DHT22;1677;49.576;10.990;2023-03-05T07:40:41;4.40;99.90
3330;DHT22;1677;49.576;10.990;2023-03-05T07:43:06;4.50;99.90
3330;DHT22;1677;49.576;10.990;2023-03-05T07:45:33;4.40;99.90
3330;DHT22;1677;49.576;10.990;2023-03-05T07:47:58;4.60;99.90
3330;DHT22;1677;49.576;10.990;2023-03-05T07:50:24;4.60;99.90
3330;DHT22;1677;49.576;10.990;2023-03-05T07:52:50;4.70;99.90
3330;DHT22;1677;49.576;10.990;2023-03-05T07:55:15;4.70;99.90
3330;DHT22;1677;49.576;10.990;2023-03-05T07:57:41;4.70;99.90
3330;DHT22;1677;49.576;10.990;2023-03-05T08:00:07;4.70;99.90
3330;DHT22;1677;49.576;10.990;2023-03-05T08:02:33;4.80;99.90
3330;DHT22;1677;49.576;10.990;2023-03-05T08:04:58;4.80;99.90
3330;DHT22;1677;49.576;10.990;2023-03-05T08:07:24;4.90;99.90
3330;DHT22;1677;49.576;10.990;2023-03-05T08:09:49;4.90;99.90
3330;DHT22;1677;49.576;10.990;2023-03-05T08:12:15;4.90;99.90
3330;DHT22;1677;49.576;10.990;2023-03-05T08:14:41;4.90;99.90
3330;DHT22;1677;49.576;10.990;2023-03-05T08:17:06;5.00;99.90
3330;DHT22;1677;49.576;10.990;2023-03-05T08:19:33;4.90;99.90
3330;DHT22;1677;49.576;10.990;2023-03-05T08:21:58;5.00;99.90
3330;DHT22;1677;49.576;10.990;2023-03-05T08:24:24;5.10;99.90
3330;DHT22;1677;49.576;10.990;2023-03-05T08:26:54;5.00;99.90
3330;DHT22;1677;49.576;10.990;2023-03-05T08:29:20;5.20;99.90
3330;DHT22;1677;49.576;10.990;2023-03-05T08:31:46;5.30;99.90
3330;DHT22;1677;49.576;10.990;2023-03-05T08:34:12;5.30;99.90
3330;DHT22;1677;49.576;10.990;2023-03-05T08:36:37;5.00;99.90
3330;DHT22;1677;49.576;10.990;2023-03-05T08:39:03;5.10;99.90
3330;DHT22;1677;49.576;10.990;2023-03-05T08:41:31;5.10;99.90
3330;DHT22;1677;49.576;10.990;2023-03-05T08:43:57;5.10;99.90
3330;DHT22;1677;49.576;10.990;2023-03-05T08:46:22;5.10;99.90
3330;DHT22;1677;49.576;10.990;2023-03-05T08:48:48;5.10;99.90
3330;DHT22;1677;49.576;10.990;2023-03-05T08:51:19;5.20;99.90
3330;DHT22;1677;49.576;10.990;2023-03-05T08:53:46;5.00;99.90
3330;DHT22;1677;49.576;10.990;2023-03-05T08:56:12;5.10;99.90
3330;DHT22;1677;49.576;10.990;2023-03-05T08:58:38;5.00;99.90
3330;DHT22;1677;49.576;10.990;2023-03-05T09:01:04;4.90;99.90
3330;DHT22;1677;49.576;10.990;2023-03-05T09:03:30;5.00;99.90
3330;DHT22;1677;49.576;10.990;2023-03-05T09:06:04;5.10;99.90
3330;DHT22;1677;49.576;10.990;2023-03-05T09:08:31;4.90;99.90
3330;DHT22;1677;49.576;10.990;2023-03-05T09:10:56;5.00;99.90
3330;DHT22;1677;49.576;10.990;2023-03-05T09:13:22;4.80;99.90
3330;DHT22;1677;49.576;10.990;2023-03-05T09:16:02;4.70;99.90
3330;DHT22;1677;49.576;10.990;2023-03-05T09:18:28;4.70;99.90
3330;DHT22;1677;49.576;10.990;2023-03-05T09:20:54;4.70;99.90
3330;DHT22;1677;49.576;10.990;2023-03-05T09:23:20;4.70;99.90
3330;DHT22;1677;49.576;10.990;2023-03-05T09:25:46;4.60;99.90
3330;DHT22;1677;49.576;10.990;2023-03-05T09:28:12;4.30;99.90
3330;DHT22;1677;49.576;10.990;2023-03-05T09:30:37;4.50;99.90
3330;DHT22;1677;49.576;10.990;2023-03-05T09:33:03;4.60;99.90
3330;DHT22;1677;49.576;10.990;2023-03-05T09:35:29;4.70;99.90
3330;DHT22;1677;49.576;10.990;2023-03-05T09:37:55;4.70;99.90
3330;DHT22;1677;49.576;10.990;2023-03-05T09:40:21;4.60;99.90
3330;DHT22;1677;49.576;10.990;2023-03-05T09:50:42;4.50;99.90
3330;DHT22;1677;49.576;10.990;2023-03-05T09:55:49;4.80;99.90
3330;DHT22;1677;49.576;10.990;2023-03-05T09:58:34;4.80;99.90
3330;DHT22;1677;49.576;10.990;2023-03-05T10:08:56;4.90;99.90
3330;DHT22;1677;49.576;10.990;2023-03-05T10:11:58;5.10;99.90
3330;DHT22;1677;49.576;10.990;2023-03-05T10:14:33;5.20;99.90
3330;DHT22;1677;49.576;10.990;2023-03-05T10:17:23;5.30;99.90
3330;DHT22;1677;49.576;10.990;2023-03-05T10:23:01;5.10;99.90
3330;DHT22;1677;49.576;10.990;2023-03-05T10:28:02;5.10;99.90
3330;DHT22;1677;49.576;10.990;2023-03-05T10:33:16;5.30;99.90
3330;DHT22;1677;49.576;10.990;2023-03-05T10:35:55;5.30;99.90
3330;DHT22;1677;49.576;10.990;2023-03-05T10:46:46;5.60;99.90
3330;DHT22;1677;49.576;10.990;2023-03-05T10:49:21;5.60;99.90
3330;DHT22;1677;49.576;10.990;2023-03-05T10:51:55;5.40;99.90
3330;DHT22;1677;49.576;10.990;2023-03-05T10:54:27;5.60;99.90
3330;DHT22;1677;49.576;10.990;2023-03-05T10:57:20;5.60;99.90
3330;DHT22;1677;49.576;10.990;2023-03-05T11:00:11;5.70;99.90
3330;DHT22;1677;49.576;10.990;2023-03-05T11:03:04;5.80;99.90
3330;DHT22;1677;49.576;10.990;2023-03-05T11:05:41;5.80;99.90
3330;DHT22;1677;49.576;10.990;2023-03-05T11:08:30;5.80;99.90
3330;DHT22;1677;49.576;10.990;2023-03-05T11:11:15;5.50;99.90
3330;DHT22;1677;49.576;10.990;2023-03-05T11:14:01;5.30;99.90
3330;DHT22;1677;49.576;10.990;2023-03-05T11:16:46;5.40;99.90
3330;DHT22;1677;49.576;10.990;2023-03-05T11:21:38;5.50;99.90
3330;DHT22;1677;49.576;10.990;2023-03-05T11:24:15;5.50;99.90
3330;DHT22;1677;49.576;10.990;2023-03-05T11:26:48;5.50;99.90
3330;DHT22;1677;49.576;10.990;2023-03-05T11:29:22;5.80;99.90
3330;DHT22;1677;49.576;10.990;2023-03-05T11:31:49;5.90;99.90
3330;DHT22;1677;49.576;10.990;2023-03-05T11:39:17;5.90;99.90
3330;DHT22;1677;49.576;10.990;2023-03-05T11:41:52;5.80;99.90
3330;DHT22;1677;49.576;10.990;2023-03-05T11:47:14;5.80;99.90
3330;DHT22;1677;49.576;10.990;2023-03-05T11:49:44;6.00;99.60
3330;DHT22;1677;49.576;10.990;2023-03-05T11:52:14;6.00;99.20
3330;DHT22;1677;49.576;10.990;2023-03-05T11:55:18;5.80;99.00
3330;DHT22;1677;49.576;10.990;2023-03-05T12:00:20;5.70;97.40
3330;DHT22;1677;49.576;10.990;2023-03-05T12:02:52;5.70;97.10
3330;DHT22;1677;49.576;10.990;2023-03-05T12:05:19;5.90;98.00
3330;DHT22;1677;49.576;10.990;2023-03-05T12:07:49;5.80;97.00
3330;DHT22;1677;49.576;10.990;2023-03-05T12:10:19;5.70;97.50
3330;DHT22;1677;49.576;10.990;2023-03-05T12:12:56;5.80;96.70
3330;DHT22;1677;49.576;10.990;2023-03-05T12:19:16;6.00;96.80
3330;DHT22;1677;49.576;10.990;2023-03-05T12:21:48;5.80;97.00
3330;DHT22;1677;49.576;10.990;2023-03-05T12:32:02;5.90;97.90
3330;DHT22;1677;49.576;10.990;2023-03-05T12:37:13;6.10;98.20
3330;DHT22;1677;49.576;10.990;2023-03-05T12:40:32;6.10;98.80
3330;DHT22;1677;49.576;10.990;2023-03-05T12:47:35;5.90;99.20
3330;DHT22;1677;49.576;10.990;2023-03-05T12:50:00;6.00;99.20
3330;DHT22;1677;49.576;10.990;2023-03-05T12:52:29;6.10;99.10
3330;DHT22;1677;49.576;10.990;2023-03-05T12:55:10;5.90;98.50
3330;DHT22;1677;49.576;10.990;2023-03-05T12:57:45;5.80;98.00
3330;DHT22;1677;49.576;10.990;2023-03-05T13:00:29;5.80;96.90
3330;DHT22;1677;49.576;10.990;2023-03-05T13:03:01;5.80;97.60
3330;DHT22;1677;49.576;10.990;2023-03-05T13:05:36;5.80;98.00
3330;DHT22;1677;49.576;10.990;2023-03-05T13:10:51;6.00;98.10
3330;DHT22;1677;49.576;10.990;2023-03-05T13:13:18;6.00;97.10
3330;DHT22;1677;49.576;10.990;2023-03-05T13:15:45;5.90;97.30
3330;DHT22;1677;49.576;10.990;2023-03-05T13:18:22;5.90;97.60
3330;DHT22;1677;49.576;10.990;2023-03-05T13:21:12;5.90;97.70
3330;DHT22;1677;49.576;10.990;2023-03-05T13:23:45;5.80;98.10
3330;DHT22;1677;49.576;10.990;2023-03-05T13:26:19;5.70;97.60
3330;DHT22;1677;49.576;10.990;2023-03-05T13:29:15;5.80;97.90
3330;DHT22;1677;49.576;10.990;2023-03-05T13:31:49;5.80;97.80
3330;DHT22;1677;49.576;10.990;2023-03-05T13:34:23;6.00;97.50
3330;DHT22;1677;49.576;10.990;2023-03-05T13:42:18;5.90;97.70
3330;DHT22;1677;49.576;10.990;2023-03-05T13:45:37;6.00;97.30
3330;DHT22;1677;49.576;10.990;2023-03-05T13:47:38;6.10;98.50
3330;DHT22;1677;49.576;10.990;2023-03-05T13:50:07;5.90;98.00
3330;DHT22;1677;49.576;10.990;2023-03-05T13:52:35;5.70;97.70
3330;DHT22;1677;49.576;10.990;2023-03-05T13:55:02;5.80;97.60
3330;DHT22;1677;49.576;10.990;2023-03-05T14:00:06;5.90;98.10
3330;DHT22;1677;49.576;10.990;2023-03-05T14:02:48;5.90;98.10
3330;DHT22;1677;49.576;10.990;2023-03-05T14:05:14;5.80;98.30
3330;DHT22;1677;49.576;10.990;2023-03-05T14:07:40;5.90;97.90
3330;DHT22;1677;49.576;10.990;2023-03-05T14:10:58;6.00;98.40
3330;DHT22;1677;49.576;10.990;2023-03-05T14:13:24;5.90;98.10
3330;DHT22;1677;49.576;10.990;2023-03-05T14:16:32;6.00;98.00
3330;DHT22;1677;49.576;10.990;2023-03-05T14:19:02;6.00;98.20
3330;DHT22;1677;49.576;10.990;2023-03-05T14:21:47;5.90;98.40
3330;DHT22;1677;49.576;10.990;2023-03-05T14:24:20;5.90;98.30
3330;DHT22;1677;49.576;10.990;2023-03-05T14:26:52;5.90;98.10
3330;DHT22;1677;49.576;10.990;2023-03-05T14:29:20;5.80;98.50
3330;DHT22;1677;49.576;10.990;2023-03-05T14:31:53;5.80;98.00
3330;DHT22;1677;49.576;10.990;2023-03-05T14:34:29;5.70;97.90
3330;DHT22;1677;49.576;10.990;2023-03-05T14:37:02;5.40;98.20
3330;DHT22;1677;49.576;10.990;2023-03-05T14:39:31;5.20;98.90
3330;DHT22;1677;49.576;10.990;2023-03-05T14:44:51;5.40;99.70
3330;DHT22;1677;49.576;10.990;2023-03-05T14:47:17;5.30;99.90
3330;DHT22;1677;49.576;10.990;2023-03-05T14:49:42;5.30;99.90
3330;DHT22;1677;49.576;10.990;2023-03-05T14:52:14;5.40;99.90
3330;DHT22;1677;49.576;10.990;2023-03-05T14:54:40;5.50;99.90
3330;DHT22;1677;49.576;10.990;2023-03-05T14:57:06;5.60;99.90
3330;DHT22;1677;49.576;10.990;2023-03-05T14:59:31;5.50;99.90
3330;DHT22;1677;49.576;10.990;2023-03-05T15:01:57;5.60;99.80
3330;DHT22;1677;49.576;10.990;2023-03-05T15:04:22;5.60;99.90
3330;DHT22;1677;49.576;10.990;2023-03-05T15:06:49;5.70;99.90
3330;DHT22;1677;49.576;10.990;2023-03-05T15:09:17;5.70;99.90
3330;DHT22;1677;49.576;10.990;2023-03-05T15:11:44;5.70;99.90
3330;DHT22;1677;49.576;10.990;2023-03-05T15:14:10;5.70;99.90
3330;DHT22;1677;49.576;10.990;2023-03-05T15:16:37;5.40;99.90
3330;DHT22;1677;49.576;10.990;2023-03-05T15:19:03;5.40;99.90
3330;DHT22;1677;49.576;10.990;2023-03-05T15:21:30;5.40;99.70
3330;DHT22;1677;49.576;10.990;2023-03-05T15:23:55;5.30;99.70
3330;DHT22;1677;49.576;10.990;2023-03-05T15:26:21;5.40;99.90
3330;DHT22;1677;49.576;10.990;2023-03-05T15:28:46;5.50;99.90
3330;DHT22;1677;49.576;10.990;2023-03-05T15:31:12;5.60;99.60
3330;DHT22;1677;49.576;10.990;2023-03-05T15:33:40;5.60;99.40
3330;DHT22;1677;49.576;10.990;2023-03-05T15:36:06;5.50;99.30
3330;DHT22;1677;49.576;10.990;2023-03-05T15:38:33;5.50;99.40
3330;DHT22;1677;49.576;10.990;2023-03-05T15:40:58;5.40;99.60
3330;DHT22;1677;49.576;10.990;2023-03-05T15:43:24;5.40;99.60
3330;DHT22;1677;49.576;10.990;2023-03-05T15:45:49;5.30;99.80
3330;DHT22;1677;49.576;10.990;2023-03-05T15:48:15;5.20;99.70
3330;DHT22;1677;49.576;10.990;2023-03-05T15:50:42;5.00;99.80
3330;DHT22;1677;49.576;10.990;2023-03-05T15:53:08;4.90;99.90
3330;DHT22;1677;49.576;10.990;2023-03-05T15:55:40;5.10;99.60
3330;DHT22;1677;49.576;10.990;2023-03-05T15:58:08;5.10;99.80
3330;DHT22;1677;49.576;10.990;2023-03-05T16:00:35;5.10;99.90
3330;DHT22;1677;49.576;10.990;2023-03-05T16:03:01;5.00;99.90
3330;DHT22;1677;49.576;10.990;2023-03-05T16:05:27;4.90;99.90
3330;DHT22;1677;49.576;10.990;2023-03-05T16:07:54;4.80;99.90
3330;DHT22;1677;49.576;10.990;2023-03-05T16:10:22;4.90;99.90
3330;DHT22;1677;49.576;10.990;2023-03-05T16:12:51;4.70;99.90
3330;DHT22;1677;49.576;10.990;2023-03-05T16:15:19;4.70;99.90
3330;DHT22;1677;49.576;10.990;2023-03-05T16:17:49;4.90;99.90
3330;DHT22;1677;49.576;10.990;2023-03-05T16:20:16;4.90;99.90
3330;DHT22;1677;49.576;10.990;2023-03-05T16:22:41;4.80;99.90
3330;DHT22;1677;49.576;10.990;2023-03-05T16:25:07;4.60;99.90
3330;DHT22;1677;49.576;10.990;2023-03-05T16:27:33;4.60;99.90
3330;DHT22;1677;49.576;10.990;2023-03-05T16:29:59;4.50;99.90
3330;DHT22;1677;49.576;10.990;2023-03-05T16:32:25;4.50;99.90
3330;DHT22;1677;49.576;10.990;2023-03-05T16:34:50;4.70;99.90
3330;DHT22;1677;49.576;10.990;2023-03-05T16:37:21;4.50;99.90
3330;DHT22;1677;49.576;10.990;2023-03-05T16:39:48;4.50;99.90
3330;DHT22;1677;49.576;10.990;2023-03-05T16:42:13;4.40;99.90
3330;DHT22;1677;49.576;10.990;2023-03-05T16:44:40;4.20;99.90
3330;DHT22;1677;49.576;10.990;2023-03-05T16:47:06;4.30;99.90
3330;DHT22;1677;49.576;10.990;2023-03-05T16:49:33;4.30;99.90
3330;DHT22;1677;49.576;10.990;2023-03-05T16:52:00;4.40;99.90
3330;DHT22;1677;49.576;10.990;2023-03-05T16:54:26;4.30;99.90
3330;DHT22;1677;49.576;10.990;2023-03-05T16:56:52;4.20;99.90
3330;DHT22;1677;49.576;10.990;2023-03-05T16:59:18;4.20;99.90
3330;DHT22;1677;49.576;10.990;2023-03-05T17:01:43;4.10;99.90
3330;DHT22;1677;49.576;10.990;2023-03-05T17:04:09;4.10;99.90
3330;DHT22;1677;49.576;10.990;2023-03-05T17:06:35;4.00;99.90
3330;DHT22;1677;49.576;10.990;2023-03-05T17:09:01;4.00;99.90
3330;DHT22;1677;49.576;10.990;2023-03-05T17:11:27;4.20;99.90
3330;DHT22;1677;49.576;10.990;2023-03-05T17:13:53;4.10;99.90
3330;DHT22;1677;49.576;10.990;2023-03-05T17:16:20;4.20;99.90
3330;DHT22;1677;49.576;10.990;2023-03-05T17:18:46;4.20;99.90
3330;DHT22;1677;49.576;10.990;2023-03-05T17:21:12;4.10;99.90
3330;DHT22;1677;49.576;10.990;2023-03-05T17:23:39;4.00;99.90
3330;DHT22;1677;49.576;10.990;2023-03-05T17:26:17;4.10;99.90
3330;DHT22;1677;49.576;10.990;2023-03-05T17:28:45;4.10;99.90
3330;DHT22;1677;49.576;10.990;2023-03-05T17:31:11;3.90;99.90
3330;DHT22;1677;49.576;10.990;2023-03-05T17:33:37;3.80;99.90
3330;DHT22;1677;49.576;10.990;2023-03-05T17:36:04;3.70;99.90